createdAt,value
2019-05-28T00:00:48.470Z,86.06
2019-05-28T00:03:14.808Z,85.68
2019-05-28T00:05:41.183Z,85.69
2019-05-28T00:08:07.537Z,85.24
2019-05-28T00:10:33.905Z,86.05
2019-05-28T00:13:00.278Z,85.72
2019-05-28T00:15:26.615Z,86.71
2019-05-28T00:17:52.981Z,86.28
2019-05-28T00:20:19.346Z,86.78
2019-05-28T00:22:45.683Z,87.70
2019-05-28T00:25:12.055Z,88.58
2019-05-28T00:27:38.394Z,88.99
2019-05-28T00:30:18.433Z,89.64
2019-05-28T00:32:31.117Z,89.14
2019-05-28T00:34:57.473Z,90.00
2019-05-28T00:37:23.927Z,89.49
2019-05-28T00:39:50.200Z,88.37
2019-05-28T00:42:16.567Z,88.10
2019-05-28T00:44:42.921Z,87.41
2019-05-28T00:47:09.291Z,87.01
2019-05-28T00:49:35.675Z,87.15
2019-05-28T00:52:02.032Z,87.86
2019-05-28T00:54:28.399Z,87.51
2019-05-28T00:56:54.795Z,86.94
2019-05-28T00:59:21.156Z,86.18
2019-05-28T01:01:47.499Z,86.33
2019-05-28T01:04:13.863Z,86.07
2019-05-28T01:06:40.227Z,85.31
2019-05-28T01:09:06.560Z,85.46
2019-05-28T01:11:32.929Z,86.47
2019-05-28T01:13:59.270Z,86.40
2019-05-28T01:16:25.638Z,85.72
2019-05-28T01:18:51.989Z,85.56
2019-05-28T01:21:18.355Z,86.50
2019-05-28T01:23:44.698Z,87.88
2019-05-28T01:26:11.086Z,89.14
2019-05-28T01:28:37.445Z,89.86
2019-05-28T01:31:03.797Z,90.62
2019-05-28T01:33:30.161Z,90.44
2019-05-28T01:35:56.507Z,89.59
2019-05-28T01:38:22.854Z,89.78
2019-05-28T01:40:49.230Z,90.12
2019-05-28T01:43:15.573Z,90.07
2019-05-28T01:45:41.945Z,89.82
2019-05-28T01:48:08.270Z,89.97
2019-05-28T01:50:34.582Z,89.93
2019-05-28T01:53:00.927Z,90.57
2019-05-28T01:55:27.231Z,90.42
2019-05-28T01:57:53.556Z,90.77
2019-05-28T02:00:19.866Z,90.79
2019-05-28T02:02:46.248Z,91.06
2019-05-28T02:05:12.544Z,90.99
2019-05-28T02:07:38.860Z,90.78
2019-05-28T02:10:05.209Z,90.54
2019-05-28T02:12:31.563Z,90.37
2019-05-28T02:14:57.883Z,90.44
2019-05-28T02:17:24.191Z,90.32
2019-05-28T02:19:50.525Z,90.80
2019-05-28T02:22:16.843Z,90.45
2019-05-28T02:24:43.170Z,89.75
2019-05-28T02:27:09.530Z,89.90
2019-05-28T02:29:35.820Z,90.16
2019-05-28T02:32:02.156Z,91.24
2019-05-28T02:34:28.457Z,91.02
2019-05-28T02:36:54.819Z,91.94
2019-05-28T02:39:21.144Z,93.45
2019-05-28T02:41:47.474Z,92.39
2019-05-28T02:44:13.778Z,91.60
2019-05-28T02:46:40.088Z,91.54
2019-05-28T02:49:06.417Z,92.34
2019-05-28T02:51:32.726Z,92.69
2019-05-28T02:53:59.068Z,91.96
2019-05-28T02:56:25.401Z,90.22
2019-05-28T02:58:51.714Z,88.94
2019-05-28T03:01:18.037Z,90.17
2019-05-28T03:03:44.347Z,91.21
2019-05-28T03:06:10.657Z,92.24
2019-05-28T03:08:36.997Z,91.70
2019-05-28T03:11:04.384Z,90.46
2019-05-28T03:13:29.647Z,90.56
2019-05-28T03:15:55.957Z,90.64
2019-05-28T03:18:22.298Z,89.26
2019-05-28T03:20:48.608Z,88.81
2019-05-28T03:23:14.980Z,89.26
2019-05-28T03:25:41.269Z,89.74
2019-05-28T03:28:07.574Z,89.79
2019-05-28T03:30:33.902Z,90.32
2019-05-28T03:33:00.215Z,91.04
2019-05-28T03:35:26.965Z,90.28
2019-05-28T03:37:53.270Z,90.65
2019-05-28T03:40:19.596Z,91.87
2019-05-28T03:42:45.936Z,91.80
2019-05-28T03:45:12.252Z,91.14
2019-05-28T03:47:38.595Z,90.20
2019-05-28T03:50:04.905Z,89.45
2019-05-28T03:52:31.251Z,88.62
2019-05-28T03:54:57.560Z,87.52
2019-05-28T03:57:23.899Z,86.25
2019-05-28T03:59:50.213Z,85.92
2019-05-28T04:02:23.658Z,85.82
2019-05-28T04:04:42.882Z,85.45
2019-05-28T04:07:09.188Z,84.84
2019-05-28T04:09:35.530Z,84.10
2019-05-28T04:12:01.843Z,83.72
2019-05-28T04:14:28.154Z,83.55
2019-05-28T04:16:54.491Z,83.60
2019-05-28T04:19:20.804Z,84.02
2019-05-28T04:21:47.130Z,84.37
2019-05-28T04:24:13.462Z,84.66
2019-05-28T04:26:39.783Z,84.42
2019-05-28T04:29:06.122Z,84.16
2019-05-28T04:31:32.429Z,83.75
2019-05-28T04:33:58.786Z,83.59
2019-05-28T04:36:25.095Z,82.31
2019-05-28T04:38:51.432Z,81.62
2019-05-28T04:41:17.743Z,81.14
2019-05-28T04:43:44.059Z,81.54
2019-05-28T04:46:10.390Z,81.11
2019-05-28T04:48:36.698Z,80.39
2019-05-28T04:51:03.026Z,80.04
2019-05-28T04:53:29.359Z,79.14
2019-05-28T04:55:55.674Z,78.63
2019-05-28T04:58:22.010Z,78.36
2019-05-28T05:00:48.316Z,76.29
2019-05-28T05:03:14.662Z,76.63
2019-05-28T05:05:40.976Z,73.35
2019-05-28T05:08:07.304Z,74.17
2019-05-28T05:10:33.624Z,73.03
2019-05-28T05:12:59.931Z,71.51
2019-05-28T05:15:26.264Z,70.30
2019-05-28T05:17:52.575Z,69.72
2019-05-28T05:20:18.909Z,70.22
2019-05-28T05:22:45.234Z,68.83
2019-05-28T05:25:11.548Z,67.31
2019-05-28T05:27:37.920Z,63.40
2019-05-28T05:30:04.259Z,58.65
2019-05-28T05:32:30.566Z,58.52
2019-05-28T05:34:56.945Z,58.12
2019-05-28T05:37:25.018Z,59.22
2019-05-28T05:39:51.066Z,59.53
2019-05-28T05:42:17.403Z,59.09
2019-05-28T05:44:43.768Z,55.95
2019-05-28T05:47:10.134Z,56.30
2019-05-28T05:49:36.441Z,54.81
2019-05-28T05:52:02.780Z,53.55
2019-05-28T05:54:29.130Z,51.95
2019-05-28T05:56:55.436Z,52.21
2019-05-28T05:59:21.751Z,51.83
2019-05-28T06:01:48.080Z,53.77
2019-05-28T06:04:14.659Z,52.15
2019-05-28T06:06:40.964Z,51.86
2019-05-28T06:09:07.301Z,52.53
2019-05-28T06:11:33.609Z,53.98
2019-05-28T06:13:59.948Z,53.97
2019-05-28T06:16:26.334Z,52.41
2019-05-28T06:18:52.616Z,52.78
2019-05-28T06:21:19.220Z,51.58
2019-05-28T06:23:45.297Z,51.22
2019-05-28T06:26:11.637Z,50.63
2019-05-28T06:28:37.951Z,51.85
2019-05-28T06:31:04.272Z,51.64
2019-05-28T06:33:30.575Z,52.65
2019-05-28T06:35:56.907Z,53.26
2019-05-28T06:38:23.212Z,52.27
2019-05-28T06:40:49.545Z,53.17
2019-05-28T06:43:15.857Z,52.14
2019-05-28T06:45:42.215Z,52.44
2019-05-28T06:48:08.554Z,52.07
2019-05-28T06:50:34.917Z,51.12
2019-05-28T06:53:01.287Z,51.09
2019-05-28T06:55:27.626Z,51.06
2019-05-28T06:57:53.927Z,51.44
2019-05-28T07:00:20.282Z,50.23
2019-05-28T07:02:46.607Z,51.27
2019-05-28T07:05:12.949Z,50.94
2019-05-28T07:07:39.298Z,50.34
2019-05-28T07:10:05.613Z,49.93
2019-05-28T07:12:31.947Z,49.54
2019-05-28T07:14:58.419Z,50.15
2019-05-28T07:17:24.633Z,50.13
2019-05-28T07:19:51.012Z,50.45
2019-05-28T07:22:17.327Z,50.64
2019-05-28T07:24:43.672Z,53.46
2019-05-28T07:27:10.040Z,53.16
2019-05-28T07:29:36.401Z,52.99
2019-05-28T07:32:02.684Z,53.19
2019-05-28T07:34:31.143Z,52.50
2019-05-28T07:36:55.328Z,51.66
2019-05-28T07:39:21.635Z,51.69
2019-05-28T07:41:47.971Z,50.88
2019-05-28T07:44:14.277Z,50.29
2019-05-28T07:46:40.640Z,50.11
2019-05-28T07:49:06.926Z,50.51
2019-05-28T07:51:33.257Z,51.60
2019-05-28T07:53:59.570Z,50.72
2019-05-28T07:56:25.896Z,50.81
2019-05-28T07:58:52.221Z,49.84
2019-05-28T08:01:18.535Z,49.57
2019-05-28T08:03:44.906Z,48.44
2019-05-28T08:06:11.211Z,48.95
2019-05-28T08:08:37.529Z,47.59
2019-05-28T08:11:03.876Z,48.02
2019-05-28T08:13:40.283Z,47.99
2019-05-28T08:16:14.749Z,47.71
2019-05-28T08:18:22.974Z,46.79
2019-05-28T08:20:49.334Z,46.04
2019-05-28T08:23:15.654Z,46.25
2019-05-28T08:25:47.499Z,45.72
2019-05-28T08:28:19.192Z,44.29
2019-05-28T08:30:34.620Z,43.75
2019-05-28T08:33:00.945Z,43.43
2019-05-28T08:35:27.257Z,43.29
2019-05-28T08:37:53.569Z,43.68
2019-05-28T08:40:19.916Z,43.59
2019-05-28T08:42:46.244Z,43.56
2019-05-28T08:45:12.559Z,42.83
2019-05-28T08:47:38.901Z,43.08
2019-05-28T08:50:05.231Z,41.38
2019-05-28T08:52:31.538Z,41.65
2019-05-28T08:54:57.869Z,43.78
2019-05-28T08:57:24.193Z,43.92
2019-05-28T08:59:50.497Z,43.85
2019-05-28T09:02:27.836Z,43.03
2019-05-28T09:04:43.477Z,41.72
2019-05-28T09:07:09.766Z,43.01
2019-05-28T09:09:36.077Z,43.25
2019-05-28T09:12:02.414Z,43.12
2019-05-28T09:14:28.746Z,42.50
2019-05-28T09:16:55.044Z,41.88
2019-05-28T09:19:21.379Z,40.47
2019-05-28T09:21:47.693Z,40.14
2019-05-28T09:24:14.030Z,40.58
2019-05-28T09:26:40.357Z,40.93
2019-05-28T09:29:06.659Z,40.56
2019-05-28T09:31:32.992Z,40.81
2019-05-28T09:33:59.301Z,39.79
2019-05-28T09:36:25.609Z,39.80
2019-05-28T09:38:51.977Z,40.02
2019-05-28T09:41:18.293Z,41.22
2019-05-28T09:43:44.628Z,43.02
2019-05-28T09:46:10.925Z,43.75
2019-05-28T09:48:37.253Z,41.52
2019-05-28T09:51:03.567Z,42.22
2019-05-28T09:53:29.893Z,42.42
2019-05-28T09:55:56.226Z,43.60
2019-05-28T09:58:22.545Z,41.28
2019-05-28T10:00:58.146Z,41.83
2019-05-28T10:03:15.205Z,40.50
2019-05-28T10:05:57.042Z,39.85
2019-05-28T10:08:10.291Z,39.62
2019-05-28T10:10:36.599Z,40.14
2019-05-28T10:13:02.928Z,40.95
2019-05-28T10:15:29.269Z,39.35
2019-05-28T10:17:55.607Z,38.98
2019-05-28T10:20:21.921Z,39.66
2019-05-28T10:22:48.230Z,39.10
2019-05-28T10:25:14.577Z,38.82
2019-05-28T10:27:58.481Z,37.75
2019-05-28T10:30:07.267Z,38.64
2019-05-28T10:32:33.541Z,40.14
2019-05-28T10:35:03.877Z,40.08
2019-05-28T10:37:26.195Z,39.63
2019-05-28T10:39:52.515Z,40.07
2019-05-28T10:42:18.852Z,39.75
2019-05-28T10:44:45.422Z,40.13
2019-05-28T10:47:11.485Z,39.93
2019-05-28T10:49:37.808Z,40.00
2019-05-28T10:52:04.126Z,39.61
2019-05-28T10:54:30.430Z,39.76
2019-05-28T10:56:56.780Z,39.54
2019-05-28T10:59:23.093Z,39.58
2019-05-28T11:01:49.415Z,39.95
2019-05-28T11:04:15.734Z,40.52
2019-05-28T11:06:51.387Z,40.79
2019-05-28T11:09:08.974Z,41.55
2019-05-28T11:11:34.701Z,41.19
2019-05-28T11:14:01.045Z,40.16
2019-05-28T11:16:27.353Z,41.64
2019-05-28T11:18:53.698Z,41.66
2019-05-28T11:21:20.029Z,42.28
2019-05-28T11:23:46.362Z,42.07
2019-05-28T11:26:12.666Z,43.19
2019-05-28T11:28:39.008Z,42.13
2019-05-28T11:31:05.307Z,41.94
2019-05-28T11:33:31.624Z,42.47
2019-05-28T11:35:57.973Z,42.70
2019-05-28T11:38:24.276Z,42.40
2019-05-28T11:40:50.603Z,42.91
2019-05-28T11:43:16.919Z,42.10
2019-05-28T11:45:43.262Z,41.61
2019-05-28T11:48:09.627Z,41.24
2019-05-28T11:50:35.908Z,41.83
2019-05-28T11:53:02.453Z,42.35
2019-05-28T11:55:28.644Z,41.90
2019-05-28T11:57:54.989Z,41.44
2019-05-28T12:00:21.297Z,41.69
2019-05-28T12:02:47.607Z,43.06
2019-05-28T12:05:14.002Z,42.47
2019-05-28T12:07:40.247Z,42.02
2019-05-28T12:10:06.587Z,40.55
2019-05-28T12:12:32.918Z,42.62
2019-05-28T12:14:59.218Z,42.18
2019-05-28T12:17:41.822Z,42.23
2019-05-28T12:19:51.868Z,43.05
2019-05-28T12:22:18.215Z,42.84
2019-05-28T12:24:44.528Z,42.12
2019-05-28T12:27:10.862Z,42.55
2019-05-28T12:29:50.950Z,42.78
2019-05-28T12:32:06.276Z,43.31
2019-05-28T12:34:29.887Z,44.50
2019-05-28T12:36:56.185Z,45.15
2019-05-28T12:39:22.582Z,44.73
2019-05-28T12:42:01.609Z,45.10
2019-05-28T12:44:17.450Z,45.61
2019-05-28T12:46:41.516Z,46.24
2019-05-28T12:49:07.845Z,46.40
2019-05-28T12:51:34.171Z,47.21
2019-05-28T12:54:00.480Z,46.57
2019-05-28T12:56:26.841Z,46.28
2019-05-28T12:58:53.219Z,46.05
2019-05-28T13:01:19.562Z,45.84
2019-05-28T13:03:45.951Z,46.79
2019-05-28T13:06:12.283Z,47.07
2019-05-28T13:08:38.633Z,46.92
2019-05-28T13:11:04.921Z,45.97
2019-05-28T13:13:31.282Z,45.33
2019-05-28T13:15:57.591Z,44.48
2019-05-28T13:18:23.927Z,44.67
2019-05-28T13:20:50.314Z,44.48
2019-05-28T13:23:16.582Z,44.75
2019-05-28T13:25:42.909Z,44.21
2019-05-28T13:28:09.218Z,44.50
2019-05-28T13:30:35.525Z,45.78
2019-05-28T13:33:01.887Z,45.90
2019-05-28T13:35:28.502Z,45.64
2019-05-28T13:37:54.822Z,46.20
2019-05-28T13:40:21.136Z,46.23
2019-05-28T13:42:47.468Z,47.17
2019-05-28T13:45:13.772Z,47.07
2019-05-28T13:47:40.106Z,46.94
2019-05-28T13:50:06.600Z,46.50
2019-05-28T13:52:32.883Z,47.04
2019-05-28T13:54:59.227Z,47.62
2019-05-28T13:57:25.534Z,47.36
2019-05-28T13:59:58.629Z,46.65
2019-05-28T14:02:18.169Z,47.05
2019-05-28T14:04:44.508Z,46.60
2019-05-28T14:07:10.807Z,46.69
2019-05-28T14:09:37.155Z,46.49
2019-05-28T14:12:03.502Z,46.44
2019-05-28T14:14:29.861Z,46.38
2019-05-28T14:16:56.180Z,47.18
2019-05-28T14:19:22.584Z,47.25
2019-05-28T14:21:48.919Z,47.52
2019-05-28T14:24:15.223Z,47.55
2019-05-28T14:26:41.678Z,46.72
2019-05-28T14:29:07.889Z,46.29
2019-05-28T14:31:34.202Z,46.10
2019-05-28T14:34:00.672Z,45.86
2019-05-28T14:36:27.001Z,45.26
2019-05-28T14:39:02.492Z,45.67
2019-05-28T14:41:19.698Z,45.38
2019-05-28T14:43:46.014Z,43.77
2019-05-28T14:46:12.372Z,44.96
2019-05-28T14:48:38.689Z,45.14
2019-05-28T14:51:05.002Z,46.10
2019-05-28T14:53:31.338Z,46.91
2019-05-28T14:55:57.650Z,47.17
2019-05-28T14:58:23.981Z,48.01
2019-05-28T15:00:50.424Z,47.88
2019-05-28T15:03:16.673Z,48.04
2019-05-28T15:05:42.984Z,48.58
2019-05-28T15:08:09.313Z,48.49
2019-05-28T15:10:35.625Z,48.58
2019-05-28T15:13:01.940Z,43.76
2019-05-28T15:15:35.825Z,34.70
2019-05-28T15:17:54.684Z,43.54
2019-05-28T15:20:20.953Z,44.61
2019-05-28T15:22:47.284Z,45.02
2019-05-28T15:25:13.589Z,38.45
2019-05-28T15:27:39.935Z,36.21
2019-05-28T15:30:06.470Z,31.02
2019-05-28T15:32:32.766Z,30.47
2019-05-28T15:34:59.101Z,31.63
2019-05-28T15:37:25.414Z,31.02
2019-05-28T15:39:51.763Z,31.93
2019-05-28T15:42:20.557Z,31.27
2019-05-28T15:44:44.529Z,31.14
2019-05-28T15:47:10.890Z,31.22
2019-05-28T15:49:37.164Z,31.68
2019-05-28T15:52:07.596Z,31.22
2019-05-28T15:54:29.999Z,31.54
2019-05-28T15:56:56.267Z,31.63
2019-05-28T15:59:22.586Z,32.01
2019-05-28T16:01:48.916Z,31.80
2019-05-28T16:04:15.258Z,32.17
2019-05-28T16:06:41.607Z,32.08
2019-05-28T16:09:07.917Z,32.13
2019-05-28T16:11:34.252Z,33.01
2019-05-28T16:14:00.563Z,33.23
2019-05-28T16:16:26.949Z,32.80
2019-05-28T16:18:53.254Z,32.53
2019-05-28T16:21:19.621Z,33.20
2019-05-28T16:23:45.944Z,33.42
2019-05-28T16:26:12.261Z,33.95
2019-05-28T16:28:38.592Z,34.22
2019-05-28T16:31:12.263Z,34.20
2019-05-28T16:33:31.232Z,34.28
2019-05-28T16:35:57.549Z,34.47
2019-05-28T16:38:23.884Z,34.79
2019-05-28T16:40:50.199Z,34.62
2019-05-28T16:43:16.532Z,34.80
2019-05-28T16:45:42.854Z,35.23
2019-05-28T16:48:09.159Z,35.12
2019-05-28T16:50:35.510Z,35.49
2019-05-28T16:53:01.886Z,35.73
2019-05-28T16:55:28.197Z,36.11
2019-05-28T16:57:54.644Z,35.98
2019-05-28T17:00:21.057Z,36.24
2019-05-28T17:02:47.375Z,36.39
2019-05-28T17:05:13.651Z,36.65
2019-05-28T17:07:39.988Z,36.75
2019-05-28T17:10:06.297Z,37.13
2019-05-28T17:12:32.707Z,37.36
2019-05-28T17:14:58.951Z,37.52
2019-05-28T17:17:25.258Z,37.87
2019-05-28T17:19:51.770Z,37.99
2019-05-28T17:22:18.082Z,38.38
2019-05-28T17:24:44.420Z,38.40
2019-05-28T17:27:10.741Z,38.57
2019-05-28T17:29:37.031Z,38.85
2019-05-28T17:32:03.356Z,39.07
2019-05-28T17:34:29.663Z,39.25
2019-05-28T17:36:55.996Z,39.51
2019-05-28T17:39:22.318Z,39.73
2019-05-28T17:41:48.645Z,39.83
2019-05-28T17:44:15.015Z,39.87
2019-05-28T17:46:41.370Z,40.16
2019-05-28T17:49:07.692Z,40.51
2019-05-28T17:51:34.094Z,40.79
2019-05-28T17:54:00.423Z,40.98
2019-05-28T17:56:26.805Z,40.75
2019-05-28T17:58:53.222Z,40.97
2019-05-28T18:01:19.426Z,41.13
2019-05-28T18:03:45.848Z,40.82
2019-05-28T18:06:12.180Z,40.69
2019-05-28T18:08:38.471Z,40.83
2019-05-28T18:11:05.096Z,41.03
2019-05-28T18:13:31.195Z,41.27
2019-05-28T18:15:57.524Z,41.35
2019-05-28T18:18:23.842Z,41.51
2019-05-28T18:20:50.211Z,41.72
2019-05-28T18:23:16.603Z,41.80
2019-05-28T18:25:42.991Z,41.79
2019-05-28T18:28:09.352Z,41.65
2019-05-28T18:30:35.703Z,41.56
2019-05-28T18:33:02.008Z,41.75
2019-05-28T18:35:28.426Z,41.50
2019-05-28T18:38:03.092Z,41.27
2019-05-28T18:40:21.095Z,41.44
2019-05-28T18:42:47.433Z,41.68
2019-05-28T18:45:13.821Z,43.50
2019-05-28T18:47:40.752Z,42.54
2019-05-28T18:50:06.608Z,42.38
2019-05-28T18:52:32.937Z,42.89
2019-05-28T18:54:59.283Z,43.58
2019-05-28T18:57:25.613Z,43.73
2019-05-28T18:59:51.934Z,43.60
2019-05-28T19:02:18.345Z,42.57
2019-05-28T19:04:44.675Z,42.32
2019-05-28T19:07:11.017Z,41.93
2019-05-28T19:09:37.343Z,42.42
2019-05-28T19:12:03.656Z,43.23
2019-05-28T19:14:30.004Z,44.21
2019-05-28T19:16:56.315Z,45.19
2019-05-28T19:19:22.644Z,46.37
2019-05-28T19:21:48.993Z,47.04
2019-05-28T19:24:15.322Z,47.97
2019-05-28T19:26:41.669Z,48.62
2019-05-28T19:29:08.008Z,48.99
2019-05-28T19:31:34.313Z,49.40
2019-05-28T19:34:00.699Z,50.12
2019-05-28T19:36:27.018Z,50.76
2019-05-28T19:38:53.399Z,51.43
2019-05-28T19:41:19.702Z,52.04
2019-05-28T19:43:46.038Z,52.54
2019-05-28T19:46:12.347Z,53.14
2019-05-28T19:48:38.738Z,53.45
2019-05-28T19:51:05.025Z,53.66
2019-05-28T19:53:31.329Z,54.38
2019-05-28T19:55:57.916Z,55.07
2019-05-28T19:58:24.227Z,55.39
2019-05-28T20:00:50.547Z,55.79
2019-05-28T20:03:16.930Z,56.19
2019-05-28T20:05:43.190Z,56.88
2019-05-28T20:08:09.593Z,57.34
2019-05-28T20:10:35.932Z,57.80
2019-05-28T20:13:02.265Z,58.43
2019-05-28T20:15:29.119Z,59.02
2019-05-28T20:17:54.944Z,59.10
2019-05-28T20:20:21.272Z,59.27
2019-05-28T20:22:47.866Z,59.51
2019-05-28T20:25:13.907Z,59.95
2019-05-28T20:27:40.284Z,60.37
2019-05-28T20:30:07.188Z,60.49
2019-05-28T20:32:32.890Z,60.97
2019-05-28T20:34:59.223Z,61.51
2019-05-28T20:37:25.532Z,61.72
2019-05-28T20:39:51.855Z,61.98
2019-05-28T20:42:27.058Z,62.08
2019-05-28T20:44:44.486Z,62.14
2019-05-28T20:47:11.006Z,62.40
2019-05-28T20:49:37.148Z,63.03
2019-05-28T20:52:03.453Z,63.08
2019-05-28T20:54:29.783Z,63.84
2019-05-28T20:56:56.817Z,63.90
2019-05-28T20:59:22.404Z,64.31
2019-05-28T21:01:49.644Z,64.41
2019-05-28T21:04:15.155Z,64.46
2019-05-28T21:06:41.474Z,64.45
2019-05-28T21:09:07.799Z,64.39
2019-05-28T21:11:34.104Z,64.65
2019-05-28T21:14:00.509Z,64.99
2019-05-28T21:16:26.821Z,64.83
2019-05-28T21:18:53.206Z,64.71
2019-05-28T21:21:19.514Z,65.12
2019-05-28T21:23:45.785Z,64.86
2019-05-28T21:26:12.117Z,65.12
2019-05-28T21:28:38.439Z,65.42
2019-05-28T21:31:04.755Z,65.72
2019-05-28T21:33:31.068Z,65.71
2019-05-28T21:35:57.411Z,65.74
2019-05-28T21:38:23.731Z,65.82
2019-05-28T21:40:51.855Z,66.12
2019-05-28T21:43:16.378Z,65.93
2019-05-28T21:45:42.690Z,65.66
2019-05-28T21:48:09.010Z,66.03
2019-05-28T21:50:35.317Z,66.28
2019-05-28T21:53:01.655Z,66.37
2019-05-28T21:55:27.968Z,66.23
2019-05-28T21:57:55.739Z,66.50
2019-05-28T22:00:20.610Z,66.63
2019-05-28T22:02:46.927Z,66.72
2019-05-28T22:05:13.261Z,66.84
2019-05-28T22:07:39.583Z,66.79
2019-05-28T22:10:05.938Z,66.82
2019-05-28T22:12:32.222Z,66.69
2019-05-28T22:14:58.553Z,66.98
2019-05-28T22:17:24.894Z,66.80
2019-05-28T22:19:52.829Z,66.93
2019-05-28T22:22:17.527Z,67.26
2019-05-28T22:24:43.860Z,67.52
2019-05-28T22:27:10.188Z,67.27
2019-05-28T22:29:36.527Z,67.83
2019-05-28T22:32:02.942Z,67.91
2019-05-28T22:34:29.179Z,68.14
2019-05-28T22:36:56.164Z,68.09
2019-05-28T22:39:21.821Z,68.02
2019-05-28T22:41:48.143Z,68.18
2019-05-28T22:44:14.505Z,68.33
2019-05-28T22:46:40.836Z,68.84
2019-05-28T22:49:07.519Z,68.89
2019-05-28T22:51:33.545Z,68.43
2019-05-28T22:53:59.820Z,68.92
2019-05-28T22:56:26.128Z,69.37
2019-05-28T22:58:52.461Z,69.47
2019-05-28T23:01:18.770Z,69.45
2019-05-28T23:03:45.113Z,69.98
2019-05-28T23:06:11.400Z,69.64
2019-05-28T23:08:37.739Z,70.00
2019-05-28T23:11:05.236Z,69.66
2019-05-28T23:13:30.422Z,69.74
2019-05-28T23:15:56.757Z,70.00
2019-05-28T23:18:23.066Z,69.77
2019-05-28T23:20:49.420Z,69.94
2019-05-28T23:23:15.725Z,70.21
2019-05-28T23:25:42.055Z,70.06
2019-05-28T23:28:08.364Z,70.08
2019-05-28T23:30:34.695Z,70.45
2019-05-28T23:33:02.193Z,70.13
2019-05-28T23:35:27.307Z,70.40
2019-05-28T23:37:53.632Z,70.71
2019-05-28T23:40:19.943Z,70.85
2019-05-28T23:42:46.274Z,70.96
2019-05-28T23:45:13.841Z,71.07
2019-05-28T23:47:38.903Z,71.38
2019-05-28T23:50:06.567Z,71.47
2019-05-28T23:52:31.541Z,71.69
2019-05-28T23:54:57.856Z,71.68
2019-05-28T23:57:24.188Z,72.33
2019-05-28T23:59:50.503Z,72.14
